createdAt,value
2018-03-01T00:01:45.435Z,39.40
2018-03-01T00:04:11.712Z,39.20
2018-03-01T00:06:37.968Z,39.30
2018-03-01T00:09:04.254Z,39.20
2018-03-01T00:11:30.602Z,39.10
2018-03-01T00:13:57.648Z,39.10
2018-03-01T00:16:24.292Z,39.10
2018-03-01T00:18:50.551Z,39.30
2018-03-01T00:21:16.847Z,39.20
2018-03-01T00:23:43.860Z,39.30
2018-03-01T00:26:10.143Z,38.80
2018-03-01T00:28:36.519Z,39.10
2018-03-01T00:31:03.402Z,39.00
2018-03-01T00:33:29.659Z,39.00
2018-03-01T00:35:55.980Z,38.90
2018-03-01T00:38:22.967Z,39.00
2018-03-01T00:40:49.235Z,39.00
2018-03-01T00:43:15.491Z,39.20
2018-03-01T00:45:41.755Z,39.00
2018-03-01T00:48:08.020Z,39.00
2018-03-01T00:50:34.279Z,38.70
2018-03-01T00:53:01.308Z,38.40
2018-03-01T00:55:28.346Z,38.70
2018-03-01T00:57:54.647Z,38.60
2018-03-01T01:00:21.016Z,39.00
2018-03-01T01:02:47.287Z,39.00
2018-03-01T01:05:13.600Z,38.80
2018-03-01T01:07:40.602Z,38.80
2018-03-01T01:10:06.847Z,38.80
2018-03-01T01:12:33.111Z,38.90
2018-03-01T01:14:59.401Z,38.60
2018-03-01T01:17:25.678Z,38.60
2018-03-01T01:19:52.647Z,38.30
2018-03-01T01:22:18.923Z,38.30
2018-03-01T01:24:45.182Z,38.50
2018-03-01T01:27:11.410Z,38.80
2018-03-01T01:29:38.419Z,38.70
2018-03-01T01:32:04.695Z,38.70
2018-03-01T01:34:31.699Z,38.70
2018-03-01T01:36:58.162Z,38.60
2018-03-01T01:39:24.427Z,38.70
2018-03-01T01:41:51.401Z,38.50
2018-03-01T01:44:17.659Z,38.50
2018-03-01T01:46:43.911Z,38.60
2018-03-01T01:49:10.210Z,38.50
2018-03-01T01:51:36.468Z,38.60
2018-03-01T01:54:02.764Z,38.50
2018-03-01T01:56:29.907Z,38.40
2018-03-01T01:58:56.221Z,38.70
2018-03-01T02:01:22.471Z,38.70
2018-03-01T02:03:48.824Z,38.60
2018-03-01T02:06:15.077Z,38.50
2018-03-01T02:08:41.324Z,38.40
2018-03-01T02:11:07.571Z,38.50
2018-03-01T02:13:33.903Z,38.20
2018-03-01T02:16:00.892Z,38.20
2018-03-01T02:18:27.267Z,38.20
2018-03-01T02:20:54.288Z,38.10
2018-03-01T02:23:20.554Z,38.00
2018-03-01T02:25:48.048Z,38.10
2018-03-01T02:28:14.326Z,38.20
2018-03-01T02:30:40.637Z,38.00
2018-03-01T02:33:06.901Z,38.30
2018-03-01T02:35:33.944Z,38.60
2018-03-01T02:38:00.176Z,38.60
2018-03-01T02:40:26.507Z,38.70
2018-03-01T02:42:52.775Z,39.00
2018-03-01T02:45:19.025Z,39.00
2018-03-01T02:47:45.308Z,38.80
2018-03-01T02:50:11.560Z,38.80
2018-03-01T02:52:38.600Z,38.70
2018-03-01T02:55:04.881Z,38.80
2018-03-01T02:57:31.128Z,38.80
2018-03-01T02:59:57.386Z,38.70
2018-03-01T03:02:23.683Z,38.80
2018-03-01T03:04:49.939Z,38.70
2018-03-01T03:07:16.235Z,38.70
2018-03-01T03:09:42.527Z,38.80
2018-03-01T03:12:08.826Z,38.60
2018-03-01T03:14:35.841Z,38.90
2018-03-01T03:17:02.107Z,38.90
2018-03-01T03:19:28.337Z,38.90
2018-03-01T03:21:54.608Z,38.80
2018-03-01T03:24:21.339Z,38.90
2018-03-01T03:26:47.580Z,39.00
2018-03-01T03:29:13.853Z,38.80
2018-03-01T03:31:40.112Z,38.80
2018-03-01T03:34:06.395Z,38.70
2018-03-01T03:36:33.601Z,38.50
2018-03-01T03:38:59.913Z,38.90
2018-03-01T03:41:26.363Z,38.90
2018-03-01T03:43:52.631Z,38.80
2018-03-01T03:46:19.372Z,38.80
2018-03-01T03:48:45.681Z,39.10
2018-03-01T03:51:11.950Z,39.10
2018-03-01T03:53:38.300Z,38.70
2018-03-01T03:56:04.576Z,38.80
2018-03-01T03:58:31.052Z,38.80
2018-03-01T04:00:57.318Z,38.80
2018-03-01T04:03:23.570Z,38.80
2018-03-01T04:05:49.877Z,38.70
2018-03-01T04:08:16.894Z,39.50
2018-03-01T04:10:43.173Z,39.10
2018-03-01T04:13:09.435Z,39.20
2018-03-01T04:15:35.700Z,39.30
2018-03-01T04:18:01.940Z,39.30
2018-03-01T04:20:28.214Z,39.30
2018-03-01T04:22:54.561Z,39.20
2018-03-01T04:25:21.536Z,38.90
2018-03-01T04:27:47.947Z,38.80
2018-03-01T04:30:14.215Z,39.20
2018-03-01T04:32:40.466Z,39.10
2018-03-01T04:35:06.712Z,39.10
2018-03-01T04:37:32.996Z,39.30
2018-03-01T04:39:59.311Z,39.40
2018-03-01T04:42:25.587Z,39.40
2018-03-01T04:44:52.138Z,39.30
2018-03-01T04:47:18.411Z,39.40
2018-03-01T04:49:44.963Z,39.20
2018-03-01T04:52:11.295Z,39.30
2018-03-01T04:54:37.549Z,39.10
2018-03-01T04:57:03.839Z,39.40
2018-03-01T04:59:30.074Z,39.40
2018-03-01T05:01:56.827Z,39.20
2018-03-01T05:04:23.607Z,39.10
2018-03-01T05:06:49.939Z,39.40
2018-03-01T05:09:16.184Z,40.20
2018-03-01T05:11:43.273Z,39.80
2018-03-01T05:14:09.568Z,39.80
2018-03-01T05:16:36.557Z,39.60
2018-03-01T05:19:02.829Z,39.60
2018-03-01T05:21:29.127Z,39.50
2018-03-01T05:23:55.423Z,39.50
2018-03-01T05:26:21.676Z,39.70
2018-03-01T05:28:48.451Z,39.90
2018-03-01T05:31:14.721Z,39.70
2018-03-01T05:33:40.956Z,39.60
2018-03-01T05:36:07.251Z,39.60
2018-03-01T05:38:33.523Z,40.00
2018-03-01T05:40:59.756Z,40.20
2018-03-01T05:43:26.004Z,40.80
2018-03-01T05:45:52.239Z,40.20
2018-03-01T05:48:18.553Z,40.10
2018-03-01T05:50:44.801Z,40.10
2018-03-01T05:53:11.139Z,40.00
2018-03-01T05:55:37.400Z,39.90
2018-03-01T05:58:03.611Z,39.90
2018-03-01T06:00:30.108Z,39.80
2018-03-01T06:02:56.359Z,39.90
2018-03-01T06:05:22.652Z,39.90
2018-03-01T06:07:49.626Z,40.10
2018-03-01T06:10:15.895Z,40.10
2018-03-01T06:12:42.130Z,39.90
2018-03-01T06:15:08.438Z,39.80
2018-03-01T06:17:34.724Z,39.70
2018-03-01T06:20:01.047Z,39.40
2018-03-01T06:22:27.324Z,39.20
2018-03-01T06:24:53.574Z,39.00
2018-03-01T06:27:19.871Z,39.30
2018-03-01T06:29:46.155Z,39.20
2018-03-01T06:32:14.411Z,39.40
2018-03-01T06:34:40.692Z,39.10
2018-03-01T06:37:06.995Z,39.10
2018-03-01T06:39:33.245Z,39.00
2018-03-01T06:41:59.500Z,42.20
2018-03-01T06:44:25.769Z,39.80
2018-03-01T06:46:52.117Z,39.50
2018-03-01T06:49:22.052Z,39.00
2018-03-01T06:51:52.272Z,39.80
2018-03-01T06:54:18.763Z,39.80
2018-03-01T06:56:45.080Z,41.00
2018-03-01T06:59:14.291Z,39.10
2018-03-01T07:01:40.543Z,39.10
2018-03-01T07:04:06.807Z,39.20
2018-03-01T07:06:33.088Z,39.10
2018-03-01T07:08:59.383Z,38.90
2018-03-01T07:11:25.706Z,39.10
2018-03-01T07:13:52.712Z,39.10
2018-03-01T07:16:18.976Z,39.10
2018-03-01T07:18:45.276Z,39.90
2018-03-01T07:21:11.552Z,38.70
2018-03-01T07:23:37.901Z,38.90
2018-03-01T07:26:04.897Z,38.90
2018-03-01T07:28:31.187Z,38.70
2018-03-01T07:30:57.452Z,38.90
2018-03-01T07:33:23.728Z,38.90
2018-03-01T07:35:49.989Z,39.70
2018-03-01T07:38:16.992Z,38.80
2018-03-01T07:40:43.236Z,38.70
2018-03-01T07:43:10.482Z,37.90
2018-03-01T07:45:38.572Z,38.40
2018-03-01T07:48:04.999Z,38.40
2018-03-01T07:50:31.258Z,38.00
2018-03-01T07:52:57.576Z,38.00
2018-03-01T07:55:23.859Z,37.90
2018-03-01T07:57:50.175Z,37.70
2018-03-01T08:00:18.421Z,37.30
2018-03-01T08:02:45.420Z,36.80
2018-03-01T08:05:11.694Z,36.80
2018-03-01T08:07:37.932Z,36.60
2018-03-01T08:10:04.212Z,36.60
2018-03-01T08:12:30.455Z,36.60
2018-03-01T08:14:56.772Z,36.70
2018-03-01T08:17:23.036Z,36.70
2018-03-01T08:19:49.383Z,36.20
2018-03-01T08:22:17.303Z,41.50
2018-03-01T08:24:43.967Z,41.50
2018-03-01T08:27:10.291Z,36.60
2018-03-01T08:29:36.568Z,35.70
2018-03-01T08:32:03.407Z,35.50
2018-03-01T08:34:29.672Z,35.30
2018-03-01T08:36:57.164Z,36.10
2018-03-01T08:39:23.609Z,36.10
2018-03-01T08:41:49.884Z,35.00
2018-03-01T08:44:16.173Z,34.70
2018-03-01T08:46:42.689Z,34.30
2018-03-01T08:49:09.148Z,34.30
2018-03-01T08:51:35.418Z,34.20
2018-03-01T08:54:01.662Z,34.00
2018-03-01T08:56:27.955Z,33.80
2018-03-01T08:58:54.957Z,33.60
2018-03-01T09:01:21.441Z,33.60
2018-03-01T09:03:47.650Z,33.70
2018-03-01T09:06:13.917Z,32.90
2018-03-01T09:08:40.883Z,32.10
2018-03-01T09:11:07.179Z,32.10
2018-03-01T09:13:34.165Z,32.20
2018-03-01T09:16:00.423Z,32.20
2018-03-01T09:18:26.687Z,32.10
2018-03-01T09:20:52.960Z,31.90
2018-03-01T09:23:19.213Z,32.30
2018-03-01T09:25:45.466Z,31.80
2018-03-01T09:28:11.740Z,31.70
2018-03-01T09:30:38.303Z,31.40
2018-03-01T09:33:04.568Z,31.30
2018-03-01T09:35:31.191Z,31.00
2018-03-01T09:37:57.469Z,31.00
2018-03-01T09:40:23.722Z,30.70
2018-03-01T09:42:49.988Z,30.40
2018-03-01T09:45:16.233Z,30.30
2018-03-01T09:47:42.512Z,30.00
2018-03-01T09:50:09.319Z,29.80
2018-03-01T09:52:35.576Z,29.70
2018-03-01T09:55:01.833Z,29.70
2018-03-01T09:57:28.132Z,29.30
2018-03-01T09:59:54.367Z,29.20
2018-03-01T10:02:21.707Z,29.10
2018-03-01T10:04:48.686Z,28.80
2018-03-01T10:07:15.025Z,28.80
2018-03-01T10:09:41.252Z,28.90
2018-03-01T10:12:07.544Z,28.90
2018-03-01T10:14:34.528Z,28.70
2018-03-01T10:17:01.499Z,29.30
2018-03-01T10:19:27.869Z,29.30
2018-03-01T10:21:54.132Z,28.80
2018-03-01T10:24:20.591Z,28.50
2018-03-01T10:26:47.024Z,28.20
2018-03-01T10:29:13.589Z,28.00
2018-03-01T10:31:40.595Z,27.80
2018-03-01T10:34:06.891Z,27.80
2018-03-01T10:36:34.412Z,27.60
2018-03-01T10:39:00.708Z,27.50
2018-03-01T10:41:31.952Z,27.40
2018-03-01T10:43:58.228Z,27.30
2018-03-01T10:46:24.477Z,27.40
2018-03-01T10:48:50.957Z,27.20
2018-03-01T10:51:17.208Z,27.30
2018-03-01T10:53:43.548Z,27.30
2018-03-01T10:56:09.812Z,27.00
2018-03-01T10:58:36.831Z,26.80
2018-03-01T11:01:03.090Z,26.80
2018-03-01T11:03:29.349Z,26.60
2018-03-01T11:05:55.593Z,26.60
2018-03-01T11:08:22.040Z,29.90
2018-03-01T11:10:48.341Z,26.70
2018-03-01T11:13:15.320Z,26.20
2018-03-01T11:15:41.713Z,26.10
2018-03-01T11:18:08.236Z,26.00
2018-03-01T11:20:34.563Z,26.00
2018-03-01T11:23:00.823Z,25.90
2018-03-01T11:25:27.807Z,26.30
2018-03-01T11:27:54.043Z,26.30
2018-03-01T11:30:20.324Z,25.80
2018-03-01T11:32:46.597Z,25.90
2018-03-01T11:35:12.868Z,26.10
2018-03-01T11:37:39.111Z,25.90
2018-03-01T11:40:06.135Z,25.60
2018-03-01T11:42:32.433Z,25.60
2018-03-01T11:44:58.693Z,25.60
2018-03-01T11:47:24.935Z,25.40
2018-03-01T11:49:51.230Z,24.90
2018-03-01T11:52:17.486Z,25.20
2018-03-01T11:54:43.752Z,25.20
2018-03-01T11:57:10.020Z,25.10
2018-03-01T12:02:15.286Z,24.80
2018-03-01T12:04:42.177Z,24.60
2018-03-01T12:07:08.435Z,24.40
2018-03-01T12:09:35.406Z,24.30
2018-03-01T12:12:02.644Z,24.30
2018-03-01T12:14:28.895Z,24.30
2018-03-01T12:16:55.165Z,24.60
2018-03-01T12:19:21.406Z,24.80
2018-03-01T12:21:47.679Z,24.80
2018-03-01T12:24:14.608Z,24.60
2018-03-01T12:26:40.906Z,24.50
2018-03-01T12:29:07.143Z,24.20
2018-03-01T12:31:33.419Z,24.00
2018-03-01T12:33:59.651Z,24.00
2018-03-01T12:36:25.916Z,24.00
2018-03-01T12:38:52.167Z,24.00
2018-03-01T12:41:18.491Z,23.70
2018-03-01T12:43:45.468Z,24.10
2018-03-01T12:46:12.493Z,23.80
2018-03-01T12:48:39.003Z,23.70
2018-03-01T12:51:05.279Z,23.70
2018-03-01T12:53:31.947Z,23.50
2018-03-01T12:55:58.219Z,23.30
2018-03-01T12:58:24.499Z,23.30
2018-03-01T13:00:50.764Z,23.20
2018-03-01T13:03:17.080Z,23.10
2018-03-01T13:05:43.371Z,23.70
2018-03-01T13:08:09.668Z,24.00
2018-03-01T13:10:36.737Z,23.10
2018-03-01T13:13:03.779Z,23.00
2018-03-01T13:15:30.204Z,23.00
2018-03-01T13:17:56.508Z,22.90
2018-03-01T13:20:22.901Z,22.70
2018-03-01T13:22:49.233Z,22.80
2018-03-01T13:25:15.542Z,22.80
2018-03-01T13:27:41.864Z,23.30
2018-03-01T13:30:11.817Z,23.10
2018-03-01T13:32:48.027Z,22.90
2018-03-01T13:35:14.301Z,22.80
2018-03-01T13:37:40.586Z,22.60
2018-03-01T13:40:06.864Z,22.80
2018-03-01T13:42:34.356Z,22.50
2018-03-01T13:45:01.361Z,22.20
2018-03-01T13:47:29.611Z,22.30
2018-03-01T13:49:55.866Z,22.50
2018-03-01T13:52:22.140Z,22.30
2018-03-01T13:54:48.563Z,22.30
2018-03-01T13:57:15.188Z,22.40
2018-03-01T13:59:42.579Z,22.20
2018-03-01T14:02:09.209Z,21.90
2018-03-01T14:04:37.727Z,21.80
2018-03-01T14:07:23.083Z,21.70
2018-03-01T14:09:49.363Z,21.90
2018-03-01T14:12:16.724Z,21.70
2018-03-01T14:14:45.856Z,21.90
2018-03-01T14:17:19.747Z,21.80
2018-03-01T14:19:51.744Z,21.30
2018-03-01T14:22:23.950Z,21.30
2018-03-01T14:24:50.637Z,21.30
2018-03-01T14:27:23.515Z,20.90
2018-03-01T14:29:52.752Z,21.20
2018-03-01T14:32:19.019Z,20.90
2018-03-01T14:34:51.775Z,21.00
2018-03-01T14:37:19.247Z,21.10
2018-03-01T14:39:46.351Z,20.90
2018-03-01T14:42:12.615Z,21.00
2018-03-01T14:44:38.848Z,20.80
2018-03-01T14:47:05.119Z,20.30
2018-03-01T14:49:31.357Z,19.80
2018-03-01T14:51:57.788Z,20.30
2018-03-01T14:54:24.049Z,19.10
2018-03-01T14:56:52.204Z,18.40
2018-03-01T14:59:19.182Z,16.40
2018-03-01T15:01:45.831Z,16.40
2018-03-01T15:04:12.065Z,16.50
2018-03-01T15:06:38.376Z,16.40
2018-03-01T15:09:04.635Z,16.30
2018-03-01T15:11:30.959Z,15.80
2018-03-01T15:13:57.192Z,15.70
2018-03-01T15:16:23.448Z,15.60
2018-03-01T15:18:52.447Z,16.00
2018-03-01T15:21:18.863Z,15.70
2018-03-01T15:23:45.116Z,15.80
2018-03-01T15:26:12.223Z,15.80
2018-03-01T15:28:38.545Z,16.00
2018-03-01T15:31:05.515Z,15.90
2018-03-01T15:33:31.764Z,15.90
2018-03-01T15:35:58.033Z,15.90
2018-03-01T15:38:24.342Z,16.10
2018-03-01T15:40:50.763Z,16.30
2018-03-01T15:43:17.938Z,18.00
2018-03-01T15:45:44.213Z,18.00
2018-03-01T15:48:10.567Z,17.90
2018-03-01T15:50:36.799Z,17.80
2018-03-01T15:53:03.039Z,18.40
2018-03-01T15:55:29.592Z,18.70
2018-03-01T15:57:55.828Z,19.30
2018-03-01T16:00:23.528Z,19.90
2018-03-01T16:02:49.796Z,20.80
2018-03-01T16:05:16.147Z,21.60
2018-03-01T16:07:42.404Z,22.40
2018-03-01T16:10:11.911Z,21.50
2018-03-01T16:12:38.659Z,21.50
2018-03-01T16:15:06.404Z,21.40
2018-03-01T16:17:33.232Z,21.50
2018-03-01T16:19:59.508Z,21.80
2018-03-01T16:22:26.596Z,22.00
2018-03-01T16:24:54.083Z,22.10
2018-03-01T16:27:24.416Z,22.60
2018-03-01T16:29:50.915Z,23.00
2018-03-01T16:32:18.594Z,23.70
2018-03-01T16:34:45.392Z,24.40
2018-03-01T16:37:12.330Z,24.80
2018-03-01T16:39:42.718Z,24.90
2018-03-01T16:42:09.018Z,25.10
2018-03-01T16:44:35.279Z,25.20
2018-03-01T16:47:01.512Z,26.00
2018-03-01T16:49:27.764Z,25.80
2018-03-01T16:51:54.793Z,26.20
2018-03-01T16:54:21.047Z,26.10
2018-03-01T16:56:48.003Z,26.40
2018-03-01T16:59:14.372Z,26.60
2018-03-01T17:01:40.873Z,28.70
2018-03-01T17:04:07.848Z,28.00
2018-03-01T17:06:34.241Z,28.70
2018-03-01T17:09:01.354Z,27.30
2018-03-01T17:11:28.533Z,27.60
2018-03-01T17:13:55.190Z,27.80
2018-03-01T17:16:21.493Z,28.10
2018-03-01T17:18:47.714Z,28.30
2018-03-01T17:21:14.004Z,28.40
2018-03-01T17:23:41.184Z,28.40
2018-03-01T17:26:09.032Z,28.40
2018-03-01T17:28:35.536Z,28.70
2018-03-01T17:31:01.802Z,28.90
2018-03-01T17:33:28.071Z,28.90
2018-03-01T17:35:54.405Z,28.90
2018-03-01T17:38:20.694Z,28.90
2018-03-01T17:40:46.962Z,29.30
2018-03-01T17:43:13.195Z,29.40
2018-03-01T17:45:44.023Z,29.90
2018-03-01T17:48:11.084Z,29.80
2018-03-01T17:50:37.354Z,29.90
2018-03-01T17:53:03.880Z,29.70
2018-03-01T17:55:31.670Z,29.60
2018-03-01T17:57:58.020Z,29.70
2018-03-01T18:00:24.519Z,29.90
2018-03-01T18:02:50.781Z,29.80
2018-03-01T18:05:17.777Z,30.00
2018-03-01T18:07:44.147Z,30.00
2018-03-01T18:10:10.391Z,30.20
2018-03-01T18:12:37.452Z,30.50
2018-03-01T18:15:04.504Z,30.60
2018-03-01T18:17:34.174Z,30.60
2018-03-01T18:20:00.412Z,30.50
2018-03-01T18:22:27.255Z,30.60
2018-03-01T18:24:53.500Z,30.80
2018-03-01T18:27:19.779Z,31.00
2018-03-01T18:29:46.006Z,31.00
2018-03-01T18:32:12.259Z,31.10
2018-03-01T18:34:38.504Z,31.00
2018-03-01T18:37:04.755Z,31.20
2018-03-01T18:39:30.980Z,32.50
2018-03-01T18:41:57.214Z,31.80
2018-03-01T18:44:24.810Z,31.90
2018-03-01T18:46:51.447Z,31.90
2018-03-01T18:49:18.423Z,32.30
2018-03-01T18:51:44.687Z,32.20
2018-03-01T18:54:10.958Z,32.30
2018-03-01T18:56:37.248Z,32.50
2018-03-01T18:59:03.512Z,32.80
2018-03-01T19:01:29.985Z,32.70
2018-03-01T19:03:56.276Z,32.60
2018-03-01T19:06:22.527Z,32.90
2018-03-01T19:08:49.112Z,33.20
2018-03-01T19:11:15.378Z,32.90
2018-03-01T19:13:42.139Z,32.80
2018-03-01T19:16:08.416Z,33.10
2018-03-01T19:18:34.701Z,33.10
2018-03-01T19:21:00.993Z,32.90
2018-03-01T19:23:28.023Z,33.30
2018-03-01T19:25:54.268Z,33.30
2018-03-01T19:28:20.542Z,33.70
2018-03-01T19:30:46.903Z,33.70
2018-03-01T19:33:13.124Z,33.60
2018-03-01T19:35:39.411Z,33.80
2018-03-01T19:38:06.446Z,34.00
2018-03-01T19:40:32.722Z,34.00
2018-03-01T19:42:58.956Z,33.80
2018-03-01T19:45:25.279Z,34.40
2018-03-01T19:47:51.490Z,33.60
2018-03-01T19:50:18.515Z,33.90
2018-03-01T19:54:28.031Z,33.70
2018-03-01T19:56:54.320Z,33.80
2018-03-01T19:59:20.550Z,34.70
2018-03-01T20:01:47.540Z,34.10
2018-03-01T20:04:14.538Z,34.10
2018-03-01T20:06:41.350Z,34.30
2018-03-01T20:09:10.777Z,34.40
2018-03-01T20:11:37.936Z,34.50
2018-03-01T20:14:07.266Z,34.40
2018-03-01T20:16:34.655Z,34.50
2018-03-01T20:19:00.876Z,36.10
2018-03-01T20:21:27.187Z,35.30
2018-03-01T20:23:53.591Z,34.80
2018-03-01T20:26:19.986Z,34.50
2018-03-01T20:28:46.215Z,34.40
2018-03-01T20:31:13.164Z,34.40
2018-03-01T20:33:39.387Z,34.60
2018-03-01T20:36:10.371Z,34.80
2018-03-01T20:41:16.190Z,34.60
2018-03-01T20:43:45.360Z,34.80
2018-03-01T20:46:12.336Z,34.80
2018-03-01T20:48:38.574Z,34.80
2018-03-01T20:51:05.737Z,34.70
2018-03-01T20:53:36.638Z,34.80
2018-03-01T20:56:04.006Z,34.80
2018-03-01T20:58:30.335Z,35.50
2018-03-01T21:00:57.327Z,35.00
2018-03-01T21:03:23.572Z,35.00
2018-03-01T21:05:50.552Z,34.80
2018-03-01T21:08:16.806Z,34.70
2018-03-01T21:10:56.500Z,34.80
2018-03-01T21:13:23.740Z,34.90
2018-03-01T21:15:51.288Z,35.10
2018-03-01T21:18:17.561Z,35.10
2018-03-01T21:20:48.816Z,35.20
2018-03-01T21:23:15.376Z,35.00
2018-03-01T21:25:41.751Z,35.10
2018-03-01T21:28:08.097Z,35.30
2018-03-01T21:30:34.453Z,35.10
2018-03-01T21:33:00.859Z,35.10
2018-03-01T21:35:27.348Z,35.20
2018-03-01T21:37:53.703Z,35.20
2018-03-01T21:40:20.052Z,35.20
2018-03-01T21:42:47.380Z,34.90
2018-03-01T21:45:13.663Z,34.90
2018-03-01T21:47:39.938Z,35.00
2018-03-01T21:50:06.212Z,34.70
2018-03-01T21:52:32.522Z,35.00
2018-03-01T21:54:58.795Z,35.10
2018-03-01T21:57:25.833Z,35.20
2018-03-01T21:59:52.101Z,35.20
2018-03-01T22:02:18.367Z,35.40
2018-03-01T22:04:44.979Z,35.40
2018-03-01T22:07:11.211Z,35.60
2018-03-01T22:09:37.858Z,35.20
2018-03-01T22:12:04.131Z,35.40
2018-03-01T22:14:30.420Z,35.20
2018-03-01T22:16:56.651Z,35.20
2018-03-01T22:19:22.970Z,35.10
2018-03-01T22:21:49.198Z,35.10
2018-03-01T22:24:15.479Z,35.20
2018-03-01T22:26:41.736Z,35.20
2018-03-01T22:29:08.272Z,35.50
2018-03-01T22:31:34.520Z,35.40
2018-03-01T22:34:01.508Z,35.10
2018-03-01T22:36:27.748Z,35.20
2018-03-01T22:38:54.012Z,35.20
2018-03-01T22:41:20.250Z,35.20
2018-03-01T22:43:46.531Z,35.10
2018-03-01T22:46:12.814Z,35.50
2018-03-01T22:48:39.820Z,35.40
2018-03-01T22:51:06.063Z,35.30
2018-03-01T22:53:32.304Z,35.30
2018-03-01T22:55:58.544Z,35.20
2018-03-01T22:58:25.543Z,35.40
2018-03-01T23:00:52.688Z,35.30
2018-03-01T23:03:18.951Z,35.50
2018-03-01T23:05:45.288Z,35.40
2018-03-01T23:08:12.083Z,35.40
2018-03-01T23:10:38.347Z,35.30
2018-03-01T23:13:04.583Z,35.30
2018-03-01T23:15:30.843Z,35.50
2018-03-01T23:17:57.091Z,35.20
2018-03-01T23:20:23.331Z,35.60
2018-03-01T23:22:49.600Z,35.70
2018-03-01T23:25:15.924Z,35.60
2018-03-01T23:27:42.157Z,35.40
2018-03-01T23:30:08.927Z,35.10
2018-03-01T23:32:35.159Z,35.10
2018-03-01T23:35:01.480Z,35.10
2018-03-01T23:37:27.716Z,35.10
2018-03-01T23:39:54.024Z,34.90
2018-03-01T23:42:20.271Z,34.90
2018-03-01T23:44:46.516Z,35.00
2018-03-01T23:47:12.812Z,35.10
2018-03-01T23:49:39.074Z,35.00
2018-03-01T23:52:05.883Z,34.80
2018-03-01T23:54:32.168Z,35.00
2018-03-01T23:56:59.172Z,35.10
2018-03-01T23:59:25.625Z,35.10
